sensor_id;sensor_type;location;lat;lon;timestamp;P1;durP1;ratioP1;P2;durP2;ratioP2
20888;SDS011;10604;51.976;7.594;2022-10-16T00:00:36;5.97;;;4.18;;
20888;SDS011;10604;51.976;7.594;2022-10-16T00:03:03;6.40;;;4.53;;
20888;SDS011;10604;51.976;7.594;2022-10-16T00:05:29;7.00;;;4.53;;
20888;SDS011;10604;51.976;7.594;2022-10-16T00:07:54;8.13;;;4.30;;
20888;SDS011;10604;51.976;7.594;2022-10-16T00:10:20;7.17;;;4.50;;
20888;SDS011;10604;51.976;7.594;2022-10-16T00:12:45;6.47;;;4.70;;
20888;SDS011;10604;51.976;7.594;2022-10-16T00:15:11;7.20;;;4.90;;
20888;SDS011;10604;51.976;7.594;2022-10-16T00:17:37;8.45;;;4.93;;
20888;SDS011;10604;51.976;7.594;2022-10-16T00:20:02;8.17;;;4.67;;
20888;SDS011;10604;51.976;7.594;2022-10-16T00:22:28;6.30;;;4.80;;
20888;SDS011;10604;51.976;7.594;2022-10-16T00:24:53;9.50;;;5.20;;
20888;SDS011;10604;51.976;7.594;2022-10-16T00:27:19;8.73;;;5.60;;
20888;SDS011;10604;51.976;7.594;2022-10-16T00:29:44;5.80;;;5.05;;
20888;SDS011;10604;51.976;7.594;2022-10-16T00:32:10;6.67;;;5.07;;
20888;SDS011;10604;51.976;7.594;2022-10-16T00:37:03;6.75;;;5.00;;
20888;SDS011;10604;51.976;7.594;2022-10-16T00:39:28;7.57;;;5.00;;
20888;SDS011;10604;51.976;7.594;2022-10-16T00:41:53;7.70;;;5.43;;
20888;SDS011;10604;51.976;7.594;2022-10-16T00:47:09;10.55;;;5.70;;
20888;SDS011;10604;51.976;7.594;2022-10-16T00:49:37;6.78;;;5.57;;
20888;SDS011;10604;51.976;7.594;2022-10-16T00:52:03;6.63;;;4.97;;
20888;SDS011;10604;51.976;7.594;2022-10-16T00:54:30;6.45;;;5.68;;
20888;SDS011;10604;51.976;7.594;2022-10-16T00:57:01;10.20;;;5.87;;
20888;SDS011;10604;51.976;7.594;2022-10-16T00:59:30;7.68;;;5.45;;
20888;SDS011;10604;51.976;7.594;2022-10-16T01:01:56;10.70;;;5.78;;
20888;SDS011;10604;51.976;7.594;2022-10-16T01:04:23;9.90;;;6.55;;
20888;SDS011;10604;51.976;7.594;2022-10-16T01:09:46;8.02;;;6.18;;
20888;SDS011;10604;51.976;7.594;2022-10-16T01:12:14;6.93;;;5.60;;
20888;SDS011;10604;51.976;7.594;2022-10-16T01:17:23;7.28;;;6.00;;
20888;SDS011;10604;51.976;7.594;2022-10-16T01:22:21;9.18;;;6.00;;
20888;SDS011;10604;51.976;7.594;2022-10-16T01:24:50;8.60;;;5.63;;
20888;SDS011;10604;51.976;7.594;2022-10-16T01:27:30;8.68;;;5.75;;
20888;SDS011;10604;51.976;7.594;2022-10-16T01:32:47;6.75;;;5.88;;
20888;SDS011;10604;51.976;7.594;2022-10-16T01:35:18;8.98;;;5.35;;
20888;SDS011;10604;51.976;7.594;2022-10-16T01:37:50;10.27;;;6.40;;
20888;SDS011;10604;51.976;7.594;2022-10-16T01:40:21;7.60;;;5.80;;
20888;SDS011;10604;51.976;7.594;2022-10-16T01:43:25;9.48;;;6.28;;
20888;SDS011;10604;51.976;7.594;2022-10-16T01:45:47;7.72;;;5.70;;
20888;SDS011;10604;51.976;7.594;2022-10-16T01:48:14;8.10;;;6.35;;
20888;SDS011;10604;51.976;7.594;2022-10-16T01:50:44;8.20;;;5.90;;
20888;SDS011;10604;51.976;7.594;2022-10-16T01:53:13;7.57;;;6.07;;
20888;SDS011;10604;51.976;7.594;2022-10-16T01:55:43;7.03;;;5.65;;
20888;SDS011;10604;51.976;7.594;2022-10-16T01:58:11;8.93;;;5.97;;
20888;SDS011;10604;51.976;7.594;2022-10-16T02:00:38;6.30;;;5.65;;
20888;SDS011;10604;51.976;7.594;2022-10-16T02:03:05;7.15;;;5.63;;
20888;SDS011;10604;51.976;7.594;2022-10-16T02:05:40;7.65;;;5.95;;
20888;SDS011;10604;51.976;7.594;2022-10-16T02:08:10;8.95;;;6.35;;
20888;SDS011;10604;51.976;7.594;2022-10-16T02:10:36;7.82;;;5.75;;
20888;SDS011;10604;51.976;7.594;2022-10-16T02:13:17;8.65;;;5.50;;
20888;SDS011;10604;51.976;7.594;2022-10-16T02:15:46;7.85;;;5.72;;
20888;SDS011;10604;51.976;7.594;2022-10-16T02:18:12;7.18;;;5.70;;
20888;SDS011;10604;51.976;7.594;2022-10-16T02:20:51;8.82;;;5.65;;
20888;SDS011;10604;51.976;7.594;2022-10-16T02:23:34;6.43;;;5.40;;
20888;SDS011;10604;51.976;7.594;2022-10-16T02:26:12;7.03;;;5.22;;
20888;SDS011;10604;51.976;7.594;2022-10-16T02:28:42;7.20;;;5.45;;
20888;SDS011;10604;51.976;7.594;2022-10-16T02:31:12;7.85;;;6.00;;
20888;SDS011;10604;51.976;7.594;2022-10-16T02:33:43;6.80;;;5.30;;
20888;SDS011;10604;51.976;7.594;2022-10-16T02:36:11;7.63;;;5.15;;
20888;SDS011;10604;51.976;7.594;2022-10-16T02:38:37;6.95;;;5.40;;
20888;SDS011;10604;51.976;7.594;2022-10-16T02:41:04;6.13;;;5.03;;
20888;SDS011;10604;51.976;7.594;2022-10-16T02:43:30;5.80;;;5.03;;
20888;SDS011;10604;51.976;7.594;2022-10-16T02:45:56;5.88;;;4.60;;
20888;SDS011;10604;51.976;7.594;2022-10-16T02:48:21;8.17;;;5.30;;
20888;SDS011;10604;51.976;7.594;2022-10-16T02:50:47;7.23;;;4.93;;
20888;SDS011;10604;51.976;7.594;2022-10-16T02:53:12;7.17;;;5.10;;
20888;SDS011;10604;51.976;7.594;2022-10-16T02:55:37;6.78;;;5.13;;
20888;SDS011;10604;51.976;7.594;2022-10-16T02:58:03;6.53;;;5.00;;
20888;SDS011;10604;51.976;7.594;2022-10-16T03:00:28;5.43;;;4.83;;
20888;SDS011;10604;51.976;7.594;2022-10-16T03:02:53;6.40;;;4.97;;
20888;SDS011;10604;51.976;7.594;2022-10-16T03:05:19;6.60;;;4.90;;
20888;SDS011;10604;51.976;7.594;2022-10-16T03:07:44;5.13;;;4.63;;
20888;SDS011;10604;51.976;7.594;2022-10-16T03:10:10;5.87;;;5.00;;
20888;SDS011;10604;51.976;7.594;2022-10-16T03:12:35;6.40;;;4.70;;
20888;SDS011;10604;51.976;7.594;2022-10-16T03:15:01;8.27;;;4.83;;
20888;SDS011;10604;51.976;7.594;2022-10-16T03:17:26;4.93;;;4.37;;
20888;SDS011;10604;51.976;7.594;2022-10-16T03:19:51;5.07;;;4.53;;
20888;SDS011;10604;51.976;7.594;2022-10-16T03:22:17;5.30;;;4.67;;
20888;SDS011;10604;51.976;7.594;2022-10-16T03:24:42;5.47;;;4.77;;
20888;SDS011;10604;51.976;7.594;2022-10-16T03:27:08;5.65;;;5.00;;
20888;SDS011;10604;51.976;7.594;2022-10-16T03:29:33;6.07;;;4.67;;
20888;SDS011;10604;51.976;7.594;2022-10-16T03:31:59;6.15;;;4.65;;
20888;SDS011;10604;51.976;7.594;2022-10-16T03:34:25;6.13;;;5.00;;
20888;SDS011;10604;51.976;7.594;2022-10-16T03:36:51;6.17;;;4.90;;
20888;SDS011;10604;51.976;7.594;2022-10-16T03:39:17;5.90;;;5.13;;
20888;SDS011;10604;51.976;7.594;2022-10-16T03:41:43;5.60;;;4.40;;
20888;SDS011;10604;51.976;7.594;2022-10-16T03:44:08;6.00;;;4.70;;
20888;SDS011;10604;51.976;7.594;2022-10-16T03:46:33;5.23;;;4.73;;
20888;SDS011;10604;51.976;7.594;2022-10-16T03:48:59;5.57;;;4.50;;
20888;SDS011;10604;51.976;7.594;2022-10-16T03:51:24;5.87;;;4.63;;
20888;SDS011;10604;51.976;7.594;2022-10-16T03:53:49;4.60;;;4.10;;
20888;SDS011;10604;51.976;7.594;2022-10-16T03:56:15;5.63;;;4.57;;
20888;SDS011;10604;51.976;7.594;2022-10-16T03:58:41;5.67;;;4.40;;
20888;SDS011;10604;51.976;7.594;2022-10-16T04:01:06;4.53;;;4.10;;
20888;SDS011;10604;51.976;7.594;2022-10-16T04:03:31;5.17;;;4.10;;
20888;SDS011;10604;51.976;7.594;2022-10-16T04:05:57;5.43;;;3.70;;
20888;SDS011;10604;51.976;7.594;2022-10-16T04:08:22;5.80;;;4.32;;
20888;SDS011;10604;51.976;7.594;2022-10-16T04:10:48;4.27;;;3.53;;
20888;SDS011;10604;51.976;7.594;2022-10-16T04:13:13;4.30;;;3.77;;
20888;SDS011;10604;51.976;7.594;2022-10-16T04:15:38;5.00;;;4.10;;
20888;SDS011;10604;51.976;7.594;2022-10-16T04:18:04;4.93;;;3.80;;
20888;SDS011;10604;51.976;7.594;2022-10-16T04:20:30;4.63;;;3.85;;
20888;SDS011;10604;51.976;7.594;2022-10-16T04:22:56;4.70;;;3.92;;
20888;SDS011;10604;51.976;7.594;2022-10-16T04:25:21;4.27;;;3.87;;
20888;SDS011;10604;51.976;7.594;2022-10-16T04:27:47;4.30;;;3.53;;
20888;SDS011;10604;51.976;7.594;2022-10-16T04:30:13;5.40;;;3.73;;
20888;SDS011;10604;51.976;7.594;2022-10-16T04:32:39;4.28;;;3.70;;
20888;SDS011;10604;51.976;7.594;2022-10-16T04:35:04;4.75;;;3.90;;
20888;SDS011;10604;51.976;7.594;2022-10-16T04:37:31;4.28;;;3.85;;
20888;SDS011;10604;51.976;7.594;2022-10-16T04:39:56;5.53;;;3.67;;
20888;SDS011;10604;51.976;7.594;2022-10-16T04:42:21;5.18;;;3.83;;
20888;SDS011;10604;51.976;7.594;2022-10-16T04:44:47;5.27;;;3.90;;
20888;SDS011;10604;51.976;7.594;2022-10-16T04:47:12;3.70;;;3.40;;
20888;SDS011;10604;51.976;7.594;2022-10-16T04:49:38;4.18;;;3.72;;
20888;SDS011;10604;51.976;7.594;2022-10-16T04:52:04;4.57;;;3.60;;
20888;SDS011;10604;51.976;7.594;2022-10-16T04:54:29;4.17;;;3.40;;
20888;SDS011;10604;51.976;7.594;2022-10-16T04:56:55;4.07;;;3.67;;
20888;SDS011;10604;51.976;7.594;2022-10-16T04:59:20;5.13;;;3.40;;
20888;SDS011;10604;51.976;7.594;2022-10-16T05:01:46;4.63;;;3.47;;
20888;SDS011;10604;51.976;7.594;2022-10-16T05:04:11;4.18;;;3.50;;
20888;SDS011;10604;51.976;7.594;2022-10-16T05:06:37;4.50;;;3.40;;
20888;SDS011;10604;51.976;7.594;2022-10-16T05:09:04;5.28;;;3.40;;
20888;SDS011;10604;51.976;7.594;2022-10-16T05:11:30;3.40;;;3.10;;
20888;SDS011;10604;51.976;7.594;2022-10-16T05:13:55;4.88;;;3.33;;
20888;SDS011;10604;51.976;7.594;2022-10-16T05:16:21;3.90;;;2.97;;
20888;SDS011;10604;51.976;7.594;2022-10-16T05:18:46;3.40;;;3.10;;
20888;SDS011;10604;51.976;7.594;2022-10-16T05:21:11;4.32;;;2.97;;
20888;SDS011;10604;51.976;7.594;2022-10-16T05:23:37;3.40;;;2.90;;
20888;SDS011;10604;51.976;7.594;2022-10-16T05:26:02;3.67;;;2.90;;
20888;SDS011;10604;51.976;7.594;2022-10-16T05:28:28;3.83;;;3.30;;
20888;SDS011;10604;51.976;7.594;2022-10-16T05:30:55;3.40;;;3.10;;
20888;SDS011;10604;51.976;7.594;2022-10-16T05:33:22;4.57;;;3.30;;
20888;SDS011;10604;51.976;7.594;2022-10-16T05:35:49;4.72;;;3.00;;
20888;SDS011;10604;51.976;7.594;2022-10-16T05:38:15;3.70;;;2.70;;
20888;SDS011;10604;51.976;7.594;2022-10-16T05:40:50;3.10;;;2.80;;
20888;SDS011;10604;51.976;7.594;2022-10-16T05:43:16;3.97;;;3.07;;
20888;SDS011;10604;51.976;7.594;2022-10-16T05:45:41;3.35;;;2.90;;
20888;SDS011;10604;51.976;7.594;2022-10-16T05:48:07;3.60;;;2.63;;
20888;SDS011;10604;51.976;7.594;2022-10-16T05:50:32;6.97;;;3.00;;
20888;SDS011;10604;51.976;7.594;2022-10-16T05:52:58;5.25;;;2.85;;
20888;SDS011;10604;51.976;7.594;2022-10-16T05:55:23;4.17;;;2.70;;
20888;SDS011;10604;51.976;7.594;2022-10-16T05:57:48;4.60;;;2.70;;
20888;SDS011;10604;51.976;7.594;2022-10-16T06:00:13;3.50;;;2.70;;
20888;SDS011;10604;51.976;7.594;2022-10-16T06:02:39;5.23;;;2.80;;
20888;SDS011;10604;51.976;7.594;2022-10-16T06:05:04;6.07;;;2.80;;
20888;SDS011;10604;51.976;7.594;2022-10-16T06:07:33;3.40;;;2.50;;
20888;SDS011;10604;51.976;7.594;2022-10-16T06:10:00;2.93;;;2.30;;
20888;SDS011;10604;51.976;7.594;2022-10-16T06:12:26;2.95;;;2.33;;
20888;SDS011;10604;51.976;7.594;2022-10-16T06:14:52;3.35;;;2.17;;
20888;SDS011;10604;51.976;7.594;2022-10-16T06:17:17;3.50;;;2.30;;
20888;SDS011;10604;51.976;7.594;2022-10-16T06:19:42;2.73;;;1.93;;
20888;SDS011;10604;51.976;7.594;2022-10-16T06:22:08;2.17;;;1.90;;
20888;SDS011;10604;51.976;7.594;2022-10-16T06:24:33;2.90;;;1.70;;
20888;SDS011;10604;51.976;7.594;2022-10-16T06:26:58;2.70;;;1.70;;
20888;SDS011;10604;51.976;7.594;2022-10-16T06:29:24;3.30;;;1.73;;
20888;SDS011;10604;51.976;7.594;2022-10-16T06:31:49;2.20;;;1.90;;
20888;SDS011;10604;51.976;7.594;2022-10-16T06:34:14;2.40;;;2.00;;
20888;SDS011;10604;51.976;7.594;2022-10-16T06:36:40;2.20;;;2.00;;
20888;SDS011;10604;51.976;7.594;2022-10-16T06:39:06;2.30;;;1.88;;
20888;SDS011;10604;51.976;7.594;2022-10-16T06:41:32;3.13;;;2.00;;
20888;SDS011;10604;51.976;7.594;2022-10-16T06:43:58;2.88;;;1.92;;
20888;SDS011;10604;51.976;7.594;2022-10-16T06:46:24;2.40;;;1.80;;
20888;SDS011;10604;51.976;7.594;2022-10-16T06:48:50;3.28;;;1.92;;
20888;SDS011;10604;51.976;7.594;2022-10-16T06:51:17;2.03;;;1.70;;
20888;SDS011;10604;51.976;7.594;2022-10-16T06:53:46;2.40;;;1.90;;
20888;SDS011;10604;51.976;7.594;2022-10-16T06:56:17;3.47;;;1.95;;
20888;SDS011;10604;51.976;7.594;2022-10-16T06:58:47;2.70;;;2.20;;
20888;SDS011;10604;51.976;7.594;2022-10-16T07:01:13;3.72;;;2.22;;
20888;SDS011;10604;51.976;7.594;2022-10-16T07:03:40;4.35;;;2.40;;
20888;SDS011;10604;51.976;7.594;2022-10-16T07:06:07;4.00;;;2.40;;
20888;SDS011;10604;51.976;7.594;2022-10-16T07:08:36;2.10;;;1.63;;
20888;SDS011;10604;51.976;7.594;2022-10-16T07:11:04;2.58;;;1.80;;
20888;SDS011;10604;51.976;7.594;2022-10-16T07:13:35;5.72;;;4.00;;
20888;SDS011;10604;51.976;7.594;2022-10-16T07:16:04;3.50;;;2.30;;
20888;SDS011;10604;51.976;7.594;2022-10-16T07:18:31;4.00;;;2.20;;
20888;SDS011;10604;51.976;7.594;2022-10-16T07:21:03;2.15;;;1.80;;
20888;SDS011;10604;51.976;7.594;2022-10-16T07:23:32;5.45;;;1.67;;
20888;SDS011;10604;51.976;7.594;2022-10-16T07:25:57;2.38;;;1.77;;
20888;SDS011;10604;51.976;7.594;2022-10-16T07:28:22;2.40;;;1.53;;
20888;SDS011;10604;51.976;7.594;2022-10-16T07:30:48;2.70;;;1.90;;
20888;SDS011;10604;51.976;7.594;2022-10-16T07:33:14;5.05;;;1.75;;
20888;SDS011;10604;51.976;7.594;2022-10-16T07:35:47;2.27;;;1.53;;
20888;SDS011;10604;51.976;7.594;2022-10-16T07:38:13;2.35;;;1.50;;
20888;SDS011;10604;51.976;7.594;2022-10-16T07:40:38;3.73;;;1.90;;
20888;SDS011;10604;51.976;7.594;2022-10-16T07:43:04;3.58;;;1.83;;
20888;SDS011;10604;51.976;7.594;2022-10-16T07:45:30;3.05;;;2.15;;
20888;SDS011;10604;51.976;7.594;2022-10-16T07:47:55;3.20;;;2.20;;
20888;SDS011;10604;51.976;7.594;2022-10-16T07:50:21;2.30;;;1.80;;
20888;SDS011;10604;51.976;7.594;2022-10-16T07:52:46;2.90;;;1.60;;
20888;SDS011;10604;51.976;7.594;2022-10-16T07:55:11;2.80;;;1.63;;
20888;SDS011;10604;51.976;7.594;2022-10-16T07:57:37;3.63;;;2.00;;
20888;SDS011;10604;51.976;7.594;2022-10-16T08:00:02;3.90;;;1.80;;
20888;SDS011;10604;51.976;7.594;2022-10-16T08:02:28;4.63;;;1.85;;
20888;SDS011;10604;51.976;7.594;2022-10-16T08:04:53;2.33;;;1.77;;
20888;SDS011;10604;51.976;7.594;2022-10-16T08:07:18;2.33;;;1.70;;
20888;SDS011;10604;51.976;7.594;2022-10-16T08:09:44;3.50;;;1.80;;
20888;SDS011;10604;51.976;7.594;2022-10-16T08:12:09;3.33;;;1.80;;
20888;SDS011;10604;51.976;7.594;2022-10-16T08:14:35;4.13;;;1.75;;
20888;SDS011;10604;51.976;7.594;2022-10-16T08:17:01;3.37;;;1.80;;
20888;SDS011;10604;51.976;7.594;2022-10-16T08:19:27;2.15;;;1.52;;
20888;SDS011;10604;51.976;7.594;2022-10-16T08:21:52;2.83;;;1.80;;
20888;SDS011;10604;51.976;7.594;2022-10-16T08:24:18;4.90;;;1.90;;
20888;SDS011;10604;51.976;7.594;2022-10-16T08:26:43;3.33;;;1.87;;
20888;SDS011;10604;51.976;7.594;2022-10-16T08:29:08;2.77;;;1.70;;
20888;SDS011;10604;51.976;7.594;2022-10-16T08:31:34;2.50;;;1.92;;
20888;SDS011;10604;51.976;7.594;2022-10-16T08:33:59;2.90;;;1.90;;
20888;SDS011;10604;51.976;7.594;2022-10-16T08:36:25;5.33;;;2.00;;
20888;SDS011;10604;51.976;7.594;2022-10-16T08:38:50;3.05;;;1.88;;
20888;SDS011;10604;51.976;7.594;2022-10-16T08:47:27;3.72;;;1.90;;
20888;SDS011;10604;51.976;7.594;2022-10-16T08:50:00;3.03;;;1.90;;
20888;SDS011;10604;51.976;7.594;2022-10-16T08:52:34;2.28;;;1.98;;
20888;SDS011;10604;51.976;7.594;2022-10-16T08:55:04;4.90;;;2.00;;
20888;SDS011;10604;51.976;7.594;2022-10-16T08:57:30;3.43;;;1.90;;
20888;SDS011;10604;51.976;7.594;2022-10-16T09:00:00;4.47;;;1.88;;
20888;SDS011;10604;51.976;7.594;2022-10-16T09:03:21;4.20;;;1.95;;
20888;SDS011;10604;51.976;7.594;2022-10-16T09:08:32;3.25;;;1.88;;
20888;SDS011;10604;51.976;7.594;2022-10-16T09:11:12;4.32;;;1.60;;
20888;SDS011;10604;51.976;7.594;2022-10-16T09:16:30;5.38;;;1.50;;
20888;SDS011;10604;51.976;7.594;2022-10-16T09:21:35;5.43;;;1.80;;
20888;SDS011;10604;51.976;7.594;2022-10-16T09:26:42;4.05;;;1.58;;
20888;SDS011;10604;51.976;7.594;2022-10-16T09:29:11;3.08;;;1.40;;
20888;SDS011;10604;51.976;7.594;2022-10-16T09:31:38;2.87;;;1.70;;
20888;SDS011;10604;51.976;7.594;2022-10-16T09:34:04;3.30;;;1.50;;
20888;SDS011;10604;51.976;7.594;2022-10-16T09:36:35;3.37;;;1.60;;
20888;SDS011;10604;51.976;7.594;2022-10-16T09:39:07;3.10;;;1.48;;
20888;SDS011;10604;51.976;7.594;2022-10-16T09:41:34;3.80;;;1.35;;
20888;SDS011;10604;51.976;7.594;2022-10-16T09:44:03;7.73;;;1.73;;
20888;SDS011;10604;51.976;7.594;2022-10-16T09:46:38;3.17;;;1.42;;
20888;SDS011;10604;51.976;7.594;2022-10-16T09:49:16;3.17;;;1.45;;
20888;SDS011;10604;51.976;7.594;2022-10-16T09:51:50;4.33;;;1.60;;
20888;SDS011;10604;51.976;7.594;2022-10-16T09:54:19;4.78;;;1.50;;
20888;SDS011;10604;51.976;7.594;2022-10-16T09:56:46;4.73;;;1.40;;
20888;SDS011;10604;51.976;7.594;2022-10-16T09:59:20;3.33;;;1.40;;
20888;SDS011;10604;51.976;7.594;2022-10-16T10:01:53;2.65;;;1.35;;
20888;SDS011;10604;51.976;7.594;2022-10-16T10:04:20;5.93;;;1.48;;
20888;SDS011;10604;51.976;7.594;2022-10-16T10:11:48;3.00;;;1.33;;
20888;SDS011;10604;51.976;7.594;2022-10-16T10:17:44;5.03;;;1.80;;
20888;SDS011;10604;51.976;7.594;2022-10-16T10:19:54;4.15;;;1.63;;
20888;SDS011;10604;51.976;7.594;2022-10-16T10:22:29;5.60;;;2.00;;
20888;SDS011;10604;51.976;7.594;2022-10-16T10:30:42;3.45;;;1.90;;
20888;SDS011;10604;51.976;7.594;2022-10-16T10:33:24;2.85;;;1.70;;
20888;SDS011;10604;51.976;7.594;2022-10-16T10:36:02;4.07;;;1.80;;
20888;SDS011;10604;51.976;7.594;2022-10-16T10:39:02;3.93;;;1.73;;
20888;SDS011;10604;51.976;7.594;2022-10-16T10:44:24;2.53;;;1.20;;
20888;SDS011;10604;51.976;7.594;2022-10-16T10:52:41;2.58;;;1.13;;
20888;SDS011;10604;51.976;7.594;2022-10-16T11:00:42;1.73;;;0.95;;
20888;SDS011;10604;51.976;7.594;2022-10-16T11:14:00;2.60;;;1.20;;
20888;SDS011;10604;51.976;7.594;2022-10-16T11:16:39;3.15;;;1.00;;
20888;SDS011;10604;51.976;7.594;2022-10-16T11:19:13;3.63;;;1.15;;
20888;SDS011;10604;51.976;7.594;2022-10-16T11:21:48;3.17;;;1.20;;
20888;SDS011;10604;51.976;7.594;2022-10-16T11:24:20;2.08;;;1.20;;
20888;SDS011;10604;51.976;7.594;2022-10-16T11:26:51;2.33;;;1.00;;
20888;SDS011;10604;51.976;7.594;2022-10-16T11:29:21;2.55;;;1.08;;
20888;SDS011;10604;51.976;7.594;2022-10-16T11:31:53;3.15;;;1.10;;
20888;SDS011;10604;51.976;7.594;2022-10-16T11:34:34;4.43;;;1.02;;
20888;SDS011;10604;51.976;7.594;2022-10-16T11:37:12;4.22;;;1.00;;
20888;SDS011;10604;51.976;7.594;2022-10-16T11:39:42;4.07;;;1.00;;
20888;SDS011;10604;51.976;7.594;2022-10-16T11:47:43;2.88;;;1.02;;
20888;SDS011;10604;51.976;7.594;2022-10-16T11:52:44;2.67;;;1.10;;
20888;SDS011;10604;51.976;7.594;2022-10-16T11:55:23;3.97;;;1.05;;
20888;SDS011;10604;51.976;7.594;2022-10-16T11:58:06;2.78;;;1.10;;
20888;SDS011;10604;51.976;7.594;2022-10-16T12:03:40;3.90;;;0.90;;
20888;SDS011;10604;51.976;7.594;2022-10-16T12:09:02;2.80;;;1.00;;
20888;SDS011;10604;51.976;7.594;2022-10-16T12:14:16;2.53;;;0.87;;
20888;SDS011;10604;51.976;7.594;2022-10-16T12:19:20;3.05;;;0.93;;
20888;SDS011;10604;51.976;7.594;2022-10-16T12:21:46;1.98;;;0.90;;
20888;SDS011;10604;51.976;7.594;2022-10-16T12:26:59;2.72;;;0.93;;
20888;SDS011;10604;51.976;7.594;2022-10-16T12:31:57;3.10;;;1.10;;
20888;SDS011;10604;51.976;7.594;2022-10-16T12:37:07;3.95;;;1.10;;
20888;SDS011;10604;51.976;7.594;2022-10-16T12:39:35;3.28;;;1.05;;
20888;SDS011;10604;51.976;7.594;2022-10-16T12:42:06;2.90;;;0.90;;
20888;SDS011;10604;51.976;7.594;2022-10-16T12:44:46;3.28;;;1.13;;
20888;SDS011;10604;51.976;7.594;2022-10-16T12:47:22;2.17;;;1.08;;
20888;SDS011;10604;51.976;7.594;2022-10-16T12:50:28;2.90;;;1.07;;
20888;SDS011;10604;51.976;7.594;2022-10-16T12:52:57;3.75;;;0.90;;
20888;SDS011;10604;51.976;7.594;2022-10-16T12:55:23;1.90;;;1.00;;
20888;SDS011;10604;51.976;7.594;2022-10-16T13:11:27;2.50;;;0.90;;
20888;SDS011;10604;51.976;7.594;2022-10-16T13:14:07;2.97;;;0.88;;
20888;SDS011;10604;51.976;7.594;2022-10-16T13:16:49;2.08;;;0.90;;
20888;SDS011;10604;51.976;7.594;2022-10-16T13:19:34;2.72;;;1.20;;
20888;SDS011;10604;51.976;7.594;2022-10-16T13:29:48;3.45;;;1.08;;
20888;SDS011;10604;51.976;7.594;2022-10-16T13:32:18;1.88;;;1.00;;
20888;SDS011;10604;51.976;7.594;2022-10-16T13:34:45;2.53;;;1.08;;
20888;SDS011;10604;51.976;7.594;2022-10-16T13:37:17;2.00;;;0.80;;
20888;SDS011;10604;51.976;7.594;2022-10-16T13:39:43;3.07;;;1.00;;
20888;SDS011;10604;51.976;7.594;2022-10-16T13:42:18;4.05;;;1.10;;
20888;SDS011;10604;51.976;7.594;2022-10-16T13:44:52;3.95;;;1.08;;
20888;SDS011;10604;51.976;7.594;2022-10-16T13:47:19;3.08;;;1.00;;
20888;SDS011;10604;51.976;7.594;2022-10-16T13:49:59;2.42;;;1.13;;
20888;SDS011;10604;51.976;7.594;2022-10-16T13:52:29;2.95;;;1.20;;
20888;SDS011;10604;51.976;7.594;2022-10-16T13:54:55;1.60;;;0.90;;
20888;SDS011;10604;51.976;7.594;2022-10-16T13:57:22;3.07;;;0.90;;
20888;SDS011;10604;51.976;7.594;2022-10-16T13:59:49;1.90;;;0.98;;
20888;SDS011;10604;51.976;7.594;2022-10-16T14:02:20;4.57;;;1.00;;
20888;SDS011;10604;51.976;7.594;2022-10-16T14:04:51;2.58;;;0.98;;
20888;SDS011;10604;51.976;7.594;2022-10-16T14:07:20;1.90;;;1.00;;
20888;SDS011;10604;51.976;7.594;2022-10-16T14:09:50;3.25;;;1.23;;
20888;SDS011;10604;51.976;7.594;2022-10-16T14:12:17;2.53;;;1.20;;
20888;SDS011;10604;51.976;7.594;2022-10-16T14:14:46;3.63;;;1.20;;
20888;SDS011;10604;51.976;7.594;2022-10-16T14:17:21;4.28;;;1.50;;
20888;SDS011;10604;51.976;7.594;2022-10-16T14:19:51;2.88;;;1.23;;
20888;SDS011;10604;51.976;7.594;2022-10-16T14:24:54;5.45;;;1.20;;
20888;SDS011;10604;51.976;7.594;2022-10-16T14:27:23;2.40;;;1.25;;
20888;SDS011;10604;51.976;7.594;2022-10-16T14:30:12;3.08;;;1.30;;
20888;SDS011;10604;51.976;7.594;2022-10-16T14:32:40;3.92;;;1.40;;
20888;SDS011;10604;51.976;7.594;2022-10-16T14:35:22;3.58;;;1.48;;
20888;SDS011;10604;51.976;7.594;2022-10-16T14:37:55;3.53;;;1.20;;
20888;SDS011;10604;51.976;7.594;2022-10-16T14:40:23;4.75;;;1.25;;
20888;SDS011;10604;51.976;7.594;2022-10-16T14:42:51;3.28;;;1.30;;
20888;SDS011;10604;51.976;7.594;2022-10-16T14:45:18;3.13;;;1.42;;
20888;SDS011;10604;51.976;7.594;2022-10-16T14:47:53;2.60;;;1.13;;
20888;SDS011;10604;51.976;7.594;2022-10-16T14:50:22;3.47;;;1.42;;
20888;SDS011;10604;51.976;7.594;2022-10-16T14:52:47;3.53;;;1.27;;
20888;SDS011;10604;51.976;7.594;2022-10-16T14:55:13;2.75;;;1.23;;
20888;SDS011;10604;51.976;7.594;2022-10-16T14:57:38;1.77;;;1.20;;
20888;SDS011;10604;51.976;7.594;2022-10-16T15:00:15;2.53;;;1.48;;
20888;SDS011;10604;51.976;7.594;2022-10-16T15:02:41;3.10;;;1.60;;
20888;SDS011;10604;51.976;7.594;2022-10-16T15:05:11;2.60;;;1.50;;
20888;SDS011;10604;51.976;7.594;2022-10-16T15:07:41;2.97;;;1.50;;
20888;SDS011;10604;51.976;7.594;2022-10-16T15:10:07;3.70;;;1.50;;
20888;SDS011;10604;51.976;7.594;2022-10-16T15:12:33;3.40;;;1.40;;
20888;SDS011;10604;51.976;7.594;2022-10-16T15:14:58;2.60;;;1.50;;
20888;SDS011;10604;51.976;7.594;2022-10-16T15:17:23;2.50;;;1.40;;
20888;SDS011;10604;51.976;7.594;2022-10-16T15:19:49;3.88;;;1.70;;
20888;SDS011;10604;51.976;7.594;2022-10-16T15:22:16;3.33;;;1.50;;
20888;SDS011;10604;51.976;7.594;2022-10-16T15:24:41;4.95;;;1.80;;
20888;SDS011;10604;51.976;7.594;2022-10-16T15:27:07;2.87;;;1.53;;
20888;SDS011;10604;51.976;7.594;2022-10-16T15:29:32;1.90;;;1.30;;
20888;SDS011;10604;51.976;7.594;2022-10-16T15:31:57;3.55;;;1.52;;
20888;SDS011;10604;51.976;7.594;2022-10-16T15:34:23;4.07;;;1.70;;
20888;SDS011;10604;51.976;7.594;2022-10-16T15:36:48;2.20;;;1.60;;
20888;SDS011;10604;51.976;7.594;2022-10-16T15:39:15;2.95;;;1.50;;
20888;SDS011;10604;51.976;7.594;2022-10-16T15:41:41;1.90;;;1.40;;
20888;SDS011;10604;51.976;7.594;2022-10-16T15:44:07;3.10;;;1.40;;
20888;SDS011;10604;51.976;7.594;2022-10-16T15:46:33;3.75;;;1.58;;
20888;SDS011;10604;51.976;7.594;2022-10-16T15:48:59;3.03;;;1.55;;
20888;SDS011;10604;51.976;7.594;2022-10-16T15:51:25;3.33;;;1.70;;
20888;SDS011;10604;51.976;7.594;2022-10-16T15:53:57;3.65;;;1.58;;
20888;SDS011;10604;51.976;7.594;2022-10-16T15:56:24;2.22;;;1.48;;
20888;SDS011;10604;51.976;7.594;2022-10-16T15:58:51;3.97;;;1.80;;
20888;SDS011;10604;51.976;7.594;2022-10-16T16:01:18;4.50;;;1.80;;
20888;SDS011;10604;51.976;7.594;2022-10-16T16:03:43;5.60;;;1.90;;
20888;SDS011;10604;51.976;7.594;2022-10-16T16:06:10;4.10;;;1.90;;
20888;SDS011;10604;51.976;7.594;2022-10-16T16:08:37;2.60;;;1.80;;
20888;SDS011;10604;51.976;7.594;2022-10-16T16:11:07;3.10;;;1.47;;
20888;SDS011;10604;51.976;7.594;2022-10-16T16:13:34;3.37;;;1.80;;
20888;SDS011;10604;51.976;7.594;2022-10-16T16:16:04;3.65;;;1.70;;
20888;SDS011;10604;51.976;7.594;2022-10-16T16:18:33;2.30;;;1.60;;
20888;SDS011;10604;51.976;7.594;2022-10-16T16:20:59;2.93;;;1.53;;
20888;SDS011;10604;51.976;7.594;2022-10-16T16:23:25;3.40;;;1.70;;
20888;SDS011;10604;51.976;7.594;2022-10-16T16:26:06;2.88;;;1.60;;
20888;SDS011;10604;51.976;7.594;2022-10-16T16:28:32;4.40;;;1.80;;
20888;SDS011;10604;51.976;7.594;2022-10-16T16:30:58;4.03;;;1.70;;
20888;SDS011;10604;51.976;7.594;2022-10-16T16:33:23;2.20;;;1.63;;
20888;SDS011;10604;51.976;7.594;2022-10-16T16:35:49;3.40;;;1.90;;
20888;SDS011;10604;51.976;7.594;2022-10-16T16:38:14;4.13;;;2.00;;
20888;SDS011;10604;51.976;7.594;2022-10-16T16:40:39;4.13;;;2.20;;
20888;SDS011;10604;51.976;7.594;2022-10-16T16:43:05;3.03;;;2.30;;
20888;SDS011;10604;51.976;7.594;2022-10-16T16:45:30;3.97;;;2.40;;
20888;SDS011;10604;51.976;7.594;2022-10-16T16:48:00;3.15;;;2.40;;
20888;SDS011;10604;51.976;7.594;2022-10-16T16:50:25;4.47;;;2.50;;
20888;SDS011;10604;51.976;7.594;2022-10-16T16:52:50;3.13;;;2.43;;
20888;SDS011;10604;51.976;7.594;2022-10-16T16:55:16;5.07;;;2.43;;
20888;SDS011;10604;51.976;7.594;2022-10-16T16:57:41;3.80;;;2.63;;